FDX19K EGSS-EDDF
Flight info
| Callsign | FDX19K |
|---|---|
| Flight time | N/A |
| Altitude | 33000 |
| Route | DET L6 DVR UL9 KONAN UL607 SPI T180 NIVNU T847 IMCOM IMCOM1A |
| Aircraft | B77L/H-SDE1E2E3FGHIJ2J3J4J5M1RWXY/LB1D1 |
Departure
| Time | 2026-05-04 11:41 |
|---|---|
| Airport | London Stansted Airport (EGSS) |
Arrival
| Time | N/A |
|---|---|
| Airport | Frankfurt Main Airport (EDDF) |
| Time | Latitude | Longitude | Altitude | Speed | Heading |
|---|---|---|---|---|---|
| 2026-05-04 11:13 | 51.88509 | 0.24647 | 335 ft | 0 kts | 43° |
| 2026-05-04 11:31 | 51.88431 | 0.24606 | 335 ft | 0 kts | 313° |
| 2026-05-04 11:34 | 51.88437 | 0.24593 | 335 ft | 5 kts | 302° |
| 2026-05-04 11:34 | 51.88471 | 0.24490 | 335 ft | 13 kts | 307° |
| 2026-05-04 11:34 | 51.88533 | 0.24378 | 356 ft | 13 kts | 306° |
| 2026-05-04 11:35 | 51.88493 | 0.24256 | 356 ft | 14 kts | 222° |
| 2026-05-04 11:35 | 51.88422 | 0.24150 | 354 ft | 14 kts | 224° |
| 2026-05-04 11:35 | 51.88341 | 0.24025 | 353 ft | 20 kts | 223° |
| 2026-05-04 11:35 | 51.88228 | 0.23855 | 354 ft | 23 kts | 223° |
| 2026-05-04 11:36 | 51.88111 | 0.23679 | 353 ft | 23 kts | 223° |
| 2026-05-04 11:36 | 51.87994 | 0.23504 | 348 ft | 23 kts | 223° |
| 2026-05-04 11:36 | 51.87877 | 0.23327 | 353 ft | 23 kts | 223° |
| 2026-05-04 11:36 | 51.87773 | 0.23171 | 347 ft | 17 kts | 223° |
| 2026-05-04 11:37 | 51.87735 | 0.23034 | 346 ft | 14 kts | 300° |
| 2026-05-04 11:37 | 51.87792 | 0.22917 | 352 ft | 11 kts | 286° |
| 2026-05-04 11:37 | 51.87751 | 0.22843 | 353 ft | 10 kts | 221° |
| 2026-05-04 11:37 | 51.87658 | 0.22706 | 351 ft | 22 kts | 223° |
| 2026-05-04 11:38 | 51.87565 | 0.22563 | 335 ft | 15 kts | 223° |
| 2026-05-04 11:38 | 51.87513 | 0.22476 | 335 ft | 8 kts | 248° |
| 2026-05-04 11:38 | 51.87535 | 0.22400 | 333 ft | 8 kts | 307° |
| 2026-05-04 11:38 | 51.87567 | 0.22342 | 331 ft | 1 kts | 314° |
| 2026-05-04 11:39 | 51.87574 | 0.22331 | 331 ft | 5 kts | 315° |
| 2026-05-04 11:40 | 51.89412 | 0.24831 | 460 ft | 177 kts | 43° |
| 2026-05-04 11:41 | 51.90280 | 0.26145 | 1222 ft | 168 kts | 41° |
| 2026-05-04 11:41 | 51.91174 | 0.27468 | 1743 ft | 178 kts | 42° |
| 2026-05-04 11:41 | 51.92092 | 0.28843 | 2322 ft | 180 kts | 43° |
| 2026-05-04 11:41 | 51.92710 | 0.30629 | 2704 ft | 197 kts | 85° |
| 2026-05-04 11:42 | 51.92381 | 0.32782 | 2996 ft | 206 kts | 124° |
| 2026-05-04 11:42 | 51.91419 | 0.34545 | 3413 ft | 215 kts | 130° |
| 2026-05-04 11:42 | 51.90478 | 0.36551 | 3716 ft | 232 kts | 122° |
| 2026-05-04 11:42 | 51.89633 | 0.38917 | 3998 ft | 254 kts | 118° |
| 2026-05-04 11:43 | 51.88796 | 0.41520 | 4188 ft | 266 kts | 117° |
| 2026-05-04 11:43 | 51.87965 | 0.44228 | 4829 ft | 268 kts | 116° |
| 2026-05-04 11:43 | 51.87152 | 0.46950 | 5660 ft | 269 kts | 116° |
| 2026-05-04 11:43 | 51.86349 | 0.49659 | 6411 ft | 273 kts | 116° |
| 2026-05-04 11:44 | 51.85525 | 0.52457 | 7038 ft | 279 kts | 116° |
| 2026-05-04 11:44 | 51.84688 | 0.55304 | 7747 ft | 281 kts | 116° |
| 2026-05-04 11:44 | 51.83841 | 0.58184 | 8459 ft | 284 kts | 116° |
| 2026-05-04 11:44 | 51.83161 | 0.61206 | 9116 ft | 290 kts | 103° |
| 2026-05-04 11:45 | 51.82949 | 0.64471 | 9789 ft | 294 kts | 91° |
| 2026-05-04 11:45 | 51.83027 | 0.67810 | 10419 ft | 299 kts | 87° |
| 2026-05-04 11:45 | 51.83178 | 0.71183 | 11090 ft | 302 kts | 86° |
| 2026-05-04 11:45 | 51.83336 | 0.74549 | 11810 ft | 305 kts | 87° |
| 2026-05-04 11:46 | 51.83483 | 0.78003 | 12596 ft | 308 kts | 87° |
| 2026-05-04 11:46 | 51.83622 | 0.81475 | 13380 ft | 312 kts | 88° |
| 2026-05-04 11:46 | 51.83758 | 0.85016 | 14039 ft | 319 kts | 88° |
| 2026-05-04 11:46 | 51.83897 | 0.88732 | 14246 ft | 343 kts | 88° |
| 2026-05-04 11:47 | 51.84044 | 0.92709 | 14427 ft | 365 kts | 88° |
| 2026-05-04 11:47 | 51.84197 | 0.96837 | 14916 ft | 377 kts | 88° |
| 2026-05-04 11:47 | 51.84358 | 1.01127 | 15539 ft | 385 kts | 88° |
| 2026-05-04 11:47 | 51.84516 | 1.05475 | 16319 ft | 388 kts | 88° |
| 2026-05-04 11:48 | 51.84672 | 1.09845 | 17146 ft | 389 kts | 88° |
| 2026-05-04 11:48 | 51.84465 | 1.14181 | 17723 ft | 390 kts | 108° |
| 2026-05-04 11:48 | 51.83308 | 1.18143 | 18365 ft | 391 kts | 128° |
| 2026-05-04 11:48 | 51.81631 | 1.21588 | 18958 ft | 393 kts | 130° |
| 2026-05-04 11:49 | 51.79924 | 1.25017 | 19564 ft | 397 kts | 130° |
| 2026-05-04 11:49 | 51.78183 | 1.28519 | 20209 ft | 401 kts | 130° |
| 2026-05-04 11:49 | 51.76425 | 1.32063 | 20862 ft | 405 kts | 130° |
| 2026-05-04 11:49 | 51.74653 | 1.35645 | 21482 ft | 409 kts | 131° |
| 2026-05-04 11:50 | 51.72892 | 1.39212 | 22094 ft | 414 kts | 131° |
| 2026-05-04 11:50 | 51.71088 | 1.42871 | 22712 ft | 418 kts | 131° |
| 2026-05-04 11:50 | 51.69270 | 1.46560 | 23274 ft | 424 kts | 131° |
| 2026-05-04 11:50 | 51.67418 | 1.50314 | 23737 ft | 430 kts | 131° |
| 2026-05-04 11:51 | 51.65542 | 1.54115 | 24290 ft | 433 kts | 131° |
| 2026-05-04 11:51 | 51.63664 | 1.57919 | 24920 ft | 433 kts | 131° |
| 2026-05-04 11:51 | 51.61809 | 1.61670 | 25523 ft | 434 kts | 131° |
| 2026-05-04 11:51 | 51.59915 | 1.65493 | 26075 ft | 437 kts | 132° |
| 2026-05-04 11:52 | 51.58011 | 1.69328 | 26595 ft | 440 kts | 132° |
| 2026-05-04 11:52 | 51.56094 | 1.73185 | 27125 ft | 442 kts | 132° |
| 2026-05-04 11:52 | 51.54168 | 1.77053 | 27758 ft | 442 kts | 132° |
| 2026-05-04 11:52 | 51.52246 | 1.80910 | 28350 ft | 443 kts | 132° |
| 2026-05-04 11:53 | 51.50308 | 1.84792 | 28849 ft | 446 kts | 132° |
| 2026-05-04 11:53 | 51.48374 | 1.88656 | 29318 ft | 449 kts | 132° |
| 2026-05-04 11:53 | 51.46407 | 1.92585 | 29795 ft | 452 kts | 133° |
| 2026-05-04 11:53 | 51.44441 | 1.96505 | 30437 ft | 449 kts | 133° |
| 2026-05-04 11:55 | 51.30457 | 2.24213 | 32119 ft | 463 kts | 133° |
| 2026-05-04 11:55 | 51.28425 | 2.28216 | 32383 ft | 463 kts | 134° |
| 2026-05-04 11:56 | 51.26396 | 2.32206 | 32575 ft | 464 kts | 134° |
| 2026-05-04 11:56 | 51.24355 | 2.36214 | 32803 ft | 464 kts | 134° |
| 2026-05-04 11:56 | 51.22319 | 2.40206 | 33026 ft | 463 kts | 134° |
| 2026-05-04 11:56 | 51.20290 | 2.44180 | 33310 ft | 462 kts | 134° |
| 2026-05-04 11:57 | 51.18287 | 2.48094 | 33572 ft | 461 kts | 134° |
| 2026-05-04 11:57 | 51.16259 | 2.52055 | 33803 ft | 460 kts | 135° |
| 2026-05-04 11:57 | 51.14228 | 2.56013 | 34037 ft | 460 kts | 135° |
| 2026-05-04 11:57 | 51.12215 | 2.59985 | 34201 ft | 461 kts | 132° |
| 2026-05-04 11:58 | 51.10446 | 2.64304 | 34322 ft | 468 kts | 124° |
| 2026-05-04 11:58 | 51.08982 | 2.68962 | 34461 ft | 473 kts | 119° |
| 2026-05-04 11:58 | 51.07825 | 2.73817 | 34614 ft | 478 kts | 112° |
| 2026-05-04 11:58 | 51.06896 | 2.78920 | 34764 ft | 479 kts | 111° |
| 2026-05-04 11:59 | 51.06000 | 2.84036 | 34892 ft | 480 kts | 110° |
| 2026-05-04 11:59 | 51.04188 | 2.94330 | 34994 ft | 484 kts | 111° |
| 2026-05-04 12:00 | 51.02336 | 3.04565 | 35016 ft | 484 kts | 111° |
| 2026-05-04 12:00 | 51.00439 | 3.14862 | 35011 ft | 485 kts | 111° |
| 2026-05-04 12:01 | 50.98528 | 3.25165 | 35002 ft | 486 kts | 111° |
| 2026-05-04 12:02 | 50.91797 | 3.61075 | 34985 ft | 487 kts | 111° |
| 2026-05-04 12:03 | 50.89829 | 3.71375 | 34995 ft | 487 kts | 112° |
| 2026-05-04 12:03 | 50.87845 | 3.81599 | 34988 ft | 488 kts | 112° |
| 2026-05-04 12:04 | 50.85840 | 3.91878 | 34997 ft | 488 kts | 112° |
| 2026-05-04 12:04 | 50.83830 | 4.02152 | 35004 ft | 489 kts | 112° |
| 2026-05-04 12:05 | 50.81820 | 4.12375 | 34996 ft | 489 kts | 112° |
| 2026-05-04 12:05 | 50.79789 | 4.22654 | 34986 ft | 489 kts | 112° |
| 2026-05-04 12:06 | 50.77749 | 4.32928 | 34994 ft | 488 kts | 112° |
| 2026-05-04 12:06 | 50.75716 | 4.43108 | 35007 ft | 488 kts | 112° |
| 2026-05-04 12:07 | 50.73660 | 4.53354 | 34998 ft | 488 kts | 112° |
| 2026-05-04 12:07 | 50.71949 | 4.61856 | 34990 ft | 488 kts | 112° |
| 2026-05-04 12:08 | 50.69639 | 4.73746 | 35006 ft | 487 kts | 112° |
| 2026-05-04 12:08 | 50.67993 | 4.82247 | 35012 ft | 487 kts | 112° |
| 2026-05-04 12:09 | 50.65659 | 4.94130 | 35009 ft | 487 kts | 113° |
| 2026-05-04 12:09 | 50.63922 | 5.02654 | 35009 ft | 487 kts | 113° |
| 2026-05-04 12:10 | 50.61838 | 5.12741 | 34981 ft | 488 kts | 113° |
| 2026-05-04 12:10 | 50.59734 | 5.22918 | 35008 ft | 488 kts | 113° |
| 2026-05-04 12:11 | 50.57635 | 5.33053 | 35011 ft | 490 kts | 113° |
| 2026-05-04 12:11 | 50.55497 | 5.43324 | 34998 ft | 491 kts | 113° |
| 2026-05-04 12:12 | 50.53373 | 5.53486 | 35006 ft | 491 kts | 114° |
| 2026-05-04 12:12 | 50.51225 | 5.63718 | 34986 ft | 492 kts | 113° |
| 2026-05-04 12:14 | 50.43484 | 6.05098 | 31530 ft | 495 kts | 112° |
| 2026-05-04 12:15 | 50.42500 | 6.10269 | 30809 ft | 493 kts | 112° |
| 2026-05-04 12:15 | 50.41539 | 6.15311 | 30282 ft | 487 kts | 112° |
| 2026-05-04 12:15 | 50.40571 | 6.20381 | 29674 ft | 481 kts | 112° |